sensor_id;sensor_type;location;lat;lon;timestamp;temperature;humidity
11379;DHT22;5744;59.392;16.748;2024-03-23T02:24:19;1.80;99.90
11379;DHT22;5744;59.392;16.748;2024-03-23T02:26:45;3.10;99.90
11379;DHT22;5744;59.392;16.748;2024-03-23T02:29:11;3.00;99.90
11379;DHT22;5744;59.392;16.748;2024-03-23T02:31:37;2.90;99.90
11379;DHT22;5744;59.392;16.748;2024-03-23T02:34:03;2.90;99.90
11379;DHT22;5744;59.392;16.748;2024-03-23T02:36:28;3.00;99.90
11379;DHT22;5744;59.392;16.748;2024-03-23T02:38:54;3.00;99.90
11379;DHT22;5744;59.392;16.748;2024-03-23T02:41:24;3.10;99.90
11379;DHT22;5744;59.392;16.748;2024-03-23T02:43:49;3.00;99.90
11379;DHT22;5744;59.392;16.748;2024-03-23T02:46:15;3.00;99.90
11379;DHT22;5744;59.392;16.748;2024-03-23T02:48:41;3.00;99.90
11379;DHT22;5744;59.392;16.748;2024-03-23T02:51:07;3.10;99.90
11379;DHT22;5744;59.392;16.748;2024-03-23T02:53:33;3.00;99.90
11379;DHT22;5744;59.392;16.748;2024-03-23T02:55:59;3.00;99.90
11379;DHT22;5744;59.392;16.748;2024-03-23T02:58:27;3.00;99.90
11379;DHT22;5744;59.392;16.748;2024-03-23T03:00:53;3.00;99.90
11379;DHT22;5744;59.392;16.748;2024-03-23T03:03:19;3.00;99.90
11379;DHT22;5744;59.392;16.748;2024-03-23T03:05:45;3.00;99.90
11379;DHT22;5744;59.392;16.748;2024-03-23T03:08:11;2.90;99.90
11379;DHT22;5744;59.392;16.748;2024-03-23T03:10:37;3.00;99.90
11379;DHT22;5744;59.392;16.748;2024-03-23T03:13:03;3.00;99.90
11379;DHT22;5744;59.392;16.748;2024-03-23T03:15:31;3.00;99.90
11379;DHT22;5744;59.392;16.748;2024-03-23T03:17:57;2.90;99.90
11379;DHT22;5744;59.392;16.748;2024-03-23T03:20:23;2.90;99.90
11379;DHT22;5744;59.392;16.748;2024-03-23T03:22:48;2.90;99.90
11379;DHT22;5744;59.392;16.748;2024-03-23T03:25:14;2.90;99.90
11379;DHT22;5744;59.392;16.748;2024-03-23T03:27:40;2.90;99.90
11379;DHT22;5744;59.392;16.748;2024-03-23T03:30:07;3.00;99.90
11379;DHT22;5744;59.392;16.748;2024-03-23T03:32:35;3.00;99.90
11379;DHT22;5744;59.392;16.748;2024-03-23T03:35:01;2.90;99.90
11379;DHT22;5744;59.392;16.748;2024-03-23T03:37:27;2.90;99.90
11379;DHT22;5744;59.392;16.748;2024-03-23T03:39:53;2.80;99.90
11379;DHT22;5744;59.392;16.748;2024-03-23T03:42:18;2.80;99.90
11379;DHT22;5744;59.392;16.748;2024-03-23T03:44:44;2.90;99.90
11379;DHT22;5744;59.392;16.748;2024-03-23T03:47:10;2.80;99.90
11379;DHT22;5744;59.392;16.748;2024-03-23T03:49:39;2.90;99.90
11379;DHT22;5744;59.392;16.748;2024-03-23T03:52:04;2.90;99.90
11379;DHT22;5744;59.392;16.748;2024-03-23T03:54:30;2.90;99.90
11379;DHT22;5744;59.392;16.748;2024-03-23T03:56:56;2.90;99.90
11379;DHT22;5744;59.392;16.748;2024-03-23T03:59:22;2.90;99.90
11379;DHT22;5744;59.392;16.748;2024-03-23T04:01:48;2.90;99.90
11379;DHT22;5744;59.392;16.748;2024-03-23T04:04:14;2.80;99.90
11379;DHT22;5744;59.392;16.748;2024-03-23T04:06:42;2.80;99.90
11379;DHT22;5744;59.392;16.748;2024-03-23T04:09:08;2.80;99.90
11379;DHT22;5744;59.392;16.748;2024-03-23T04:11:34;2.90;99.90
11379;DHT22;5744;59.392;16.748;2024-03-23T04:14:00;2.80;99.90
11379;DHT22;5744;59.392;16.748;2024-03-23T04:16:29;2.80;99.90
11379;DHT22;5744;59.392;16.748;2024-03-23T04:18:55;2.80;99.90
11379;DHT22;5744;59.392;16.748;2024-03-23T04:21:21;2.70;99.90
11379;DHT22;5744;59.392;16.748;2024-03-23T04:23:50;2.70;99.90
11379;DHT22;5744;59.392;16.748;2024-03-23T04:26:16;2.80;99.90
11379;DHT22;5744;59.392;16.748;2024-03-23T04:28:41;2.70;99.90
11379;DHT22;5744;59.392;16.748;2024-03-23T04:31:07;2.70;99.90
11379;DHT22;5744;59.392;16.748;2024-03-23T04:33:33;2.60;99.90
11379;DHT22;5744;59.392;16.748;2024-03-23T04:35:59;2.60;99.90
11379;DHT22;5744;59.392;16.748;2024-03-23T04:38:25;2.60;99.90
11379;DHT22;5744;59.392;16.748;2024-03-23T04:40:56;2.70;99.90
11379;DHT22;5744;59.392;16.748;2024-03-23T04:43:22;2.60;99.90
11379;DHT22;5744;59.392;16.748;2024-03-23T04:45:48;2.60;99.90
11379;DHT22;5744;59.392;16.748;2024-03-23T04:48:14;2.50;99.90
11379;DHT22;5744;59.392;16.748;2024-03-23T04:50:40;2.60;99.90
11379;DHT22;5744;59.392;16.748;2024-03-23T04:53:06;2.70;99.90
11379;DHT22;5744;59.392;16.748;2024-03-23T04:55:32;2.70;99.90
11379;DHT22;5744;59.392;16.748;2024-03-23T04:58:00;2.70;99.90
11379;DHT22;5744;59.392;16.748;2024-03-23T05:00:26;2.70;99.90
11379;DHT22;5744;59.392;16.748;2024-03-23T05:02:52;2.70;99.90
11379;DHT22;5744;59.392;16.748;2024-03-23T05:05:18;2.70;99.90
11379;DHT22;5744;59.392;16.748;2024-03-23T05:07:44;2.70;99.90
11379;DHT22;5744;59.392;16.748;2024-03-23T05:10:10;2.70;99.90
11379;DHT22;5744;59.392;16.748;2024-03-23T05:12:36;2.70;99.90
11379;DHT22;5744;59.392;16.748;2024-03-23T05:15:05;2.70;99.90
11379;DHT22;5744;59.392;16.748;2024-03-23T05:17:31;2.70;99.90
11379;DHT22;5744;59.392;16.748;2024-03-23T05:19:57;2.80;99.90
11379;DHT22;5744;59.392;16.748;2024-03-23T05:22:23;2.80;99.90
11379;DHT22;5744;59.392;16.748;2024-03-23T05:24:49;2.90;99.90
11379;DHT22;5744;59.392;16.748;2024-03-23T05:27:15;2.90;99.90
11379;DHT22;5744;59.392;16.748;2024-03-23T05:29:41;3.00;99.90
11379;DHT22;5744;59.392;16.748;2024-03-23T05:32:10;3.00;99.90
11379;DHT22;5744;59.392;16.748;2024-03-23T05:34:35;3.10;99.90
11379;DHT22;5744;59.392;16.748;2024-03-23T05:37:01;3.20;99.90
11379;DHT22;5744;59.392;16.748;2024-03-23T05:39:28;3.20;99.90
11379;DHT22;5744;59.392;16.748;2024-03-23T05:41:54;3.30;99.90
11379;DHT22;5744;59.392;16.748;2024-03-23T05:44:19;3.40;99.90
11379;DHT22;5744;59.392;16.748;2024-03-23T05:46:45;3.40;99.90
11379;DHT22;5744;59.392;16.748;2024-03-23T05:49:15;3.60;99.90
11379;DHT22;5744;59.392;16.748;2024-03-23T05:51:41;3.60;99.90
11379;DHT22;5744;59.392;16.748;2024-03-23T05:54:06;3.70;99.90
11379;DHT22;5744;59.392;16.748;2024-03-23T05:56:32;3.70;99.90
11379;DHT22;5744;59.392;16.748;2024-03-23T05:58:58;3.80;99.90
11379;DHT22;5744;59.392;16.748;2024-03-23T06:01:24;3.90;99.90
11379;DHT22;5744;59.392;16.748;2024-03-23T06:03:50;3.90;99.90
11379;DHT22;5744;59.392;16.748;2024-03-23T06:06:19;4.00;99.90
11379;DHT22;5744;59.392;16.748;2024-03-23T06:08:45;4.10;99.90
11379;DHT22;5744;59.392;16.748;2024-03-23T06:11:10;4.10;99.90
11379;DHT22;5744;59.392;16.748;2024-03-23T06:13:36;4.10;99.90
11379;DHT22;5744;59.392;16.748;2024-03-23T06:16:02;4.10;99.90
11379;DHT22;5744;59.392;16.748;2024-03-23T06:18:28;4.30;99.90
11379;DHT22;5744;59.392;16.748;2024-03-23T06:20:54;4.40;99.90
11379;DHT22;5744;59.392;16.748;2024-03-23T06:23:23;4.40;99.90
11379;DHT22;5744;59.392;16.748;2024-03-23T06:25:48;4.50;99.90
11379;DHT22;5744;59.392;16.748;2024-03-23T06:28:14;4.50;99.90
11379;DHT22;5744;59.392;16.748;2024-03-23T06:30:40;4.60;99.90
11379;DHT22;5744;59.392;16.748;2024-03-23T06:33:06;4.80;99.90
11379;DHT22;5744;59.392;16.748;2024-03-23T06:35:32;4.90;99.90
11379;DHT22;5744;59.392;16.748;2024-03-23T06:37:58;5.10;99.90
11379;DHT22;5744;59.392;16.748;2024-03-23T06:40:26;5.30;99.90
11379;DHT22;5744;59.392;16.748;2024-03-23T06:42:52;5.40;99.90
11379;DHT22;5744;59.392;16.748;2024-03-23T06:45:18;5.50;99.90
11379;DHT22;5744;59.392;16.748;2024-03-23T06:47:44;5.70;99.90
11379;DHT22;5744;59.392;16.748;2024-03-23T06:50:10;6.00;99.90
11379;DHT22;5744;59.392;16.748;2024-03-23T06:52:36;6.20;99.90
11379;DHT22;5744;59.392;16.748;2024-03-23T06:55:01;6.10;99.90
11379;DHT22;5744;59.392;16.748;2024-03-23T06:57:30;6.10;99.90
11379;DHT22;5744;59.392;16.748;2024-03-23T06:59:57;6.10;99.90
11379;DHT22;5744;59.392;16.748;2024-03-23T07:02:23;6.00;99.90
11379;DHT22;5744;59.392;16.748;2024-03-23T07:04:49;6.10;99.90
11379;DHT22;5744;59.392;16.748;2024-03-23T07:07:15;6.20;99.90
11379;DHT22;5744;59.392;16.748;2024-03-23T07:09:40;6.20;99.90
11379;DHT22;5744;59.392;16.748;2024-03-23T07:12:06;6.10;99.90
11379;DHT22;5744;59.392;16.748;2024-03-23T07:14:35;6.10;99.90
11379;DHT22;5744;59.392;16.748;2024-03-23T07:17:01;6.10;99.90
11379;DHT22;5744;59.392;16.748;2024-03-23T07:19:27;6.20;99.90
11379;DHT22;5744;59.392;16.748;2024-03-23T07:21:52;6.20;99.90
11379;DHT22;5744;59.392;16.748;2024-03-23T07:24:18;6.20;99.90
11379;DHT22;5744;59.392;16.748;2024-03-23T07:26:44;6.30;99.90
11379;DHT22;5744;59.392;16.748;2024-03-23T07:29:10;6.40;99.90
11379;DHT22;5744;59.392;16.748;2024-03-23T07:31:38;6.30;99.90
11379;DHT22;5744;59.392;16.748;2024-03-23T07:34:04;6.40;99.90
11379;DHT22;5744;59.392;16.748;2024-03-23T07:36:30;6.50;99.90
11379;DHT22;5744;59.392;16.748;2024-03-23T07:38:56;6.50;99.90
11379;DHT22;5744;59.392;16.748;2024-03-23T07:41:22;6.50;99.90
11379;DHT22;5744;59.392;16.748;2024-03-23T07:43:48;6.60;99.90
11379;DHT22;5744;59.392;16.748;2024-03-23T07:46:14;6.70;99.90
11379;DHT22;5744;59.392;16.748;2024-03-23T07:48:43;6.80;99.90
11379;DHT22;5744;59.392;16.748;2024-03-23T07:51:09;7.40;99.90
11379;DHT22;5744;59.392;16.748;2024-03-23T07:53:35;7.70;99.90
11379;DHT22;5744;59.392;16.748;2024-03-23T07:56:05;7.70;99.90
11379;DHT22;5744;59.392;16.748;2024-03-23T07:58:31;7.60;99.90
11379;DHT22;5744;59.392;16.748;2024-03-23T08:01:03;7.30;99.90
11379;DHT22;5744;59.392;16.748;2024-03-23T08:03:29;7.30;99.90
11379;DHT22;5744;59.392;16.748;2024-03-23T08:05:58;7.40;99.90
11379;DHT22;5744;59.392;16.748;2024-03-23T08:08:24;7.40;99.90
11379;DHT22;5744;59.392;16.748;2024-03-23T08:10:51;7.50;99.90
11379;DHT22;5744;59.392;16.748;2024-03-23T08:13:17;7.80;99.90
11379;DHT22;5744;59.392;16.748;2024-03-23T08:15:43;7.90;99.90
11379;DHT22;5744;59.392;16.748;2024-03-23T08:18:09;7.80;99.90
11379;DHT22;5744;59.392;16.748;2024-03-23T08:20:35;8.00;99.90
11379;DHT22;5744;59.392;16.748;2024-03-23T08:23:04;8.60;99.90
11379;DHT22;5744;59.392;16.748;2024-03-23T08:25:31;8.70;99.90
11379;DHT22;5744;59.392;16.748;2024-03-23T08:27:57;8.50;99.90
11379;DHT22;5744;59.392;16.748;2024-03-23T08:30:23;8.30;99.90
11379;DHT22;5744;59.392;16.748;2024-03-23T08:32:49;8.20;99.90
11379;DHT22;5744;59.392;16.748;2024-03-23T08:35:15;8.20;99.90
11379;DHT22;5744;59.392;16.748;2024-03-23T08:37:41;8.40;99.90
11379;DHT22;5744;59.392;16.748;2024-03-23T08:40:10;8.50;99.90
11379;DHT22;5744;59.392;16.748;2024-03-23T08:42:36;8.70;99.90
11379;DHT22;5744;59.392;16.748;2024-03-23T08:45:02;8.70;99.90
11379;DHT22;5744;59.392;16.748;2024-03-23T08:47:28;8.90;99.90
11379;DHT22;5744;59.392;16.748;2024-03-23T08:49:53;8.90;99.90
11379;DHT22;5744;59.392;16.748;2024-03-23T08:52:19;9.40;99.90
11379;DHT22;5744;59.392;16.748;2024-03-23T08:54:45;9.10;99.90
11379;DHT22;5744;59.392;16.748;2024-03-23T08:57:14;9.50;99.90
11379;DHT22;5744;59.392;16.748;2024-03-23T08:59:40;10.30;99.90
11379;DHT22;5744;59.392;16.748;2024-03-23T09:02:05;11.10;99.90
11379;DHT22;5744;59.392;16.748;2024-03-23T09:04:31;11.70;99.90
11379;DHT22;5744;59.392;16.748;2024-03-23T09:06:57;12.00;99.90
11379;DHT22;5744;59.392;16.748;2024-03-23T09:09:24;12.30;99.90
11379;DHT22;5744;59.392;16.748;2024-03-23T09:11:49;12.30;99.90
11379;DHT22;5744;59.392;16.748;2024-03-23T09:14:18;12.90;99.90
11379;DHT22;5744;59.392;16.748;2024-03-23T09:16:44;13.10;99.90
11379;DHT22;5744;59.392;16.748;2024-03-23T09:19:10;13.20;99.90
11379;DHT22;5744;59.392;16.748;2024-03-23T09:21:36;12.60;99.90
11379;DHT22;5744;59.392;16.748;2024-03-23T09:24:02;13.10;99.90
11379;DHT22;5744;59.392;16.748;2024-03-23T09:26:27;11.50;99.90
11379;DHT22;5744;59.392;16.748;2024-03-23T09:28:54;11.20;99.90
11379;DHT22;5744;59.392;16.748;2024-03-23T09:31:22;12.00;99.90
11379;DHT22;5744;59.392;16.748;2024-03-23T09:33:48;12.10;99.90
11379;DHT22;5744;59.392;16.748;2024-03-23T09:36:14;12.40;99.90
11379;DHT22;5744;59.392;16.748;2024-03-23T09:38:40;11.90;99.90
11379;DHT22;5744;59.392;16.748;2024-03-23T09:41:06;11.50;99.90
11379;DHT22;5744;59.392;16.748;2024-03-23T09:43:32;12.30;99.90
11379;DHT22;5744;59.392;16.748;2024-03-23T09:45:59;12.20;99.90
11379;DHT22;5744;59.392;16.748;2024-03-23T09:48:27;12.00;99.90
11379;DHT22;5744;59.392;16.748;2024-03-23T09:50:53;12.00;99.90
11379;DHT22;5744;59.392;16.748;2024-03-23T09:53:19;12.40;99.90
11379;DHT22;5744;59.392;16.748;2024-03-23T09:55:45;14.00;99.90
11379;DHT22;5744;59.392;16.748;2024-03-23T09:58:12;14.40;99.90
11379;DHT22;5744;59.392;16.748;2024-03-23T10:00:38;14.20;99.90
11379;DHT22;5744;59.392;16.748;2024-03-23T10:03:04;12.10;99.90
11379;DHT22;5744;59.392;16.748;2024-03-23T10:05:33;11.10;99.90
11379;DHT22;5744;59.392;16.748;2024-03-23T10:07:59;11.10;99.90
11379;DHT22;5744;59.392;16.748;2024-03-23T10:10:25;11.90;99.90
11379;DHT22;5744;59.392;16.748;2024-03-23T10:12:51;12.60;99.90
11379;DHT22;5744;59.392;16.748;2024-03-23T10:15:18;12.40;99.90
11379;DHT22;5744;59.392;16.748;2024-03-23T10:17:44;12.40;99.90
11379;DHT22;5744;59.392;16.748;2024-03-23T10:20:10;12.00;99.90
11379;DHT22;5744;59.392;16.748;2024-03-23T10:22:39;11.90;99.90
11379;DHT22;5744;59.392;16.748;2024-03-23T10:25:08;11.40;99.90
11379;DHT22;5744;59.392;16.748;2024-03-23T10:27:34;11.40;99.90
11379;DHT22;5744;59.392;16.748;2024-03-23T10:30:07;11.30;99.90
11379;DHT22;5744;59.392;16.748;2024-03-23T10:32:33;10.60;99.90
11379;DHT22;5744;59.392;16.748;2024-03-23T10:35:06;10.30;99.90
11379;DHT22;5744;59.392;16.748;2024-03-23T10:37:41;9.70;99.90
11379;DHT22;5744;59.392;16.748;2024-03-23T10:40:08;9.60;99.90
11379;DHT22;5744;59.392;16.748;2024-03-23T10:42:36;9.60;99.90
11379;DHT22;5744;59.392;16.748;2024-03-23T10:45:02;9.50;99.90
11379;DHT22;5744;59.392;16.748;2024-03-23T10:47:29;9.40;99.90
11379;DHT22;5744;59.392;16.748;2024-03-23T10:49:55;9.40;99.90
11379;DHT22;5744;59.392;16.748;2024-03-23T10:52:21;9.40;99.90
11379;DHT22;5744;59.392;16.748;2024-03-23T10:54:49;9.30;99.90
11379;DHT22;5744;59.392;16.748;2024-03-23T10:57:17;9.20;99.90
11379;DHT22;5744;59.392;16.748;2024-03-23T10:59:43;9.20;99.90
11379;DHT22;5744;59.392;16.748;2024-03-23T11:02:17;9.40;99.90
11379;DHT22;5744;59.392;16.748;2024-03-23T11:04:44;9.80;99.90
11379;DHT22;5744;59.392;16.748;2024-03-23T11:09:53;10.10;99.90
11379;DHT22;5744;59.392;16.748;2024-03-23T11:12:25;9.90;99.90
11379;DHT22;5744;59.392;16.748;2024-03-23T11:14:52;9.70;99.90
11379;DHT22;5744;59.392;16.748;2024-03-23T11:17:18;9.80;99.90
11379;DHT22;5744;59.392;16.748;2024-03-23T11:19:44;10.20;99.90
11379;DHT22;5744;59.392;16.748;2024-03-23T11:22:10;10.50;99.90
11379;DHT22;5744;59.392;16.748;2024-03-23T11:24:36;11.20;99.90
11379;DHT22;5744;59.392;16.748;2024-03-23T11:27:04;11.40;99.90
11379;DHT22;5744;59.392;16.748;2024-03-23T11:29:40;11.40;99.90
11379;DHT22;5744;59.392;16.748;2024-03-23T11:32:07;11.80;99.90
11379;DHT22;5744;59.392;16.748;2024-03-23T11:34:35;11.70;99.90
11379;DHT22;5744;59.392;16.748;2024-03-23T11:37:03;11.70;99.90
11379;DHT22;5744;59.392;16.748;2024-03-23T11:39:29;11.20;99.90
11379;DHT22;5744;59.392;16.748;2024-03-23T11:41:56;11.40;99.90
11379;DHT22;5744;59.392;16.748;2024-03-23T11:44:25;12.00;99.90
11379;DHT22;5744;59.392;16.748;2024-03-23T11:46:51;11.90;99.90
11379;DHT22;5744;59.392;16.748;2024-03-23T11:49:21;11.60;99.90
11379;DHT22;5744;59.392;16.748;2024-03-23T11:51:47;11.60;99.90
11379;DHT22;5744;59.392;16.748;2024-03-23T11:54:13;11.50;99.90
11379;DHT22;5744;59.392;16.748;2024-03-23T11:56:39;11.10;99.90
11379;DHT22;5744;59.392;16.748;2024-03-23T11:59:05;11.60;99.90
11379;DHT22;5744;59.392;16.748;2024-03-23T12:01:34;12.20;99.90
11379;DHT22;5744;59.392;16.748;2024-03-23T12:04:00;12.70;99.90
11379;DHT22;5744;59.392;16.748;2024-03-23T12:06:26;13.00;99.90
11379;DHT22;5744;59.392;16.748;2024-03-23T12:08:52;13.40;99.90
11379;DHT22;5744;59.392;16.748;2024-03-23T12:11:18;13.50;99.90
11379;DHT22;5744;59.392;16.748;2024-03-23T12:13:44;13.60;99.90
11379;DHT22;5744;59.392;16.748;2024-03-23T12:16:10;13.00;99.90
11379;DHT22;5744;59.392;16.748;2024-03-23T12:18:39;12.70;99.90
11379;DHT22;5744;59.392;16.748;2024-03-23T12:21:06;13.00;99.90
11379;DHT22;5744;59.392;16.748;2024-03-23T12:23:31;13.00;99.90
11379;DHT22;5744;59.392;16.748;2024-03-23T12:25:58;13.40;99.90
11379;DHT22;5744;59.392;16.748;2024-03-23T12:28:23;13.50;99.90
11379;DHT22;5744;59.392;16.748;2024-03-23T12:30:49;13.40;99.90
11379;DHT22;5744;59.392;16.748;2024-03-23T12:33:15;13.40;99.90
11379;DHT22;5744;59.392;16.748;2024-03-23T12:35:44;13.40;99.90
11379;DHT22;5744;59.392;16.748;2024-03-23T12:38:10;12.70;99.90
11379;DHT22;5744;59.392;16.748;2024-03-23T12:40:35;12.20;99.90
11379;DHT22;5744;59.392;16.748;2024-03-23T12:43:01;11.90;99.90
11379;DHT22;5744;59.392;16.748;2024-03-23T12:45:27;12.00;99.90
11379;DHT22;5744;59.392;16.748;2024-03-23T12:47:53;11.70;99.90
11379;DHT22;5744;59.392;16.748;2024-03-23T12:50:19;11.40;99.90
11379;DHT22;5744;59.392;16.748;2024-03-23T12:52:47;11.90;99.90
11379;DHT22;5744;59.392;16.748;2024-03-23T12:55:13;12.90;99.90
11379;DHT22;5744;59.392;16.748;2024-03-23T12:57:39;13.00;99.90
11379;DHT22;5744;59.392;16.748;2024-03-23T13:00:06;13.60;99.90
11379;DHT22;5744;59.392;16.748;2024-03-23T13:02:32;13.90;99.90
11379;DHT22;5744;59.392;16.748;2024-03-23T13:04:59;13.40;99.90
11379;DHT22;5744;59.392;16.748;2024-03-23T13:07:25;12.70;99.90
11379;DHT22;5744;59.392;16.748;2024-03-23T13:09:53;12.70;99.90
11379;DHT22;5744;59.392;16.748;2024-03-23T13:12:19;12.90;99.90
11379;DHT22;5744;59.392;16.748;2024-03-23T13:14:45;13.20;99.90
11379;DHT22;5744;59.392;16.748;2024-03-23T13:17:11;12.80;99.90
11379;DHT22;5744;59.392;16.748;2024-03-23T13:19:37;12.80;99.90
11379;DHT22;5744;59.392;16.748;2024-03-23T13:22:03;12.70;99.90
11379;DHT22;5744;59.392;16.748;2024-03-23T13:24:29;12.70;99.90
11379;DHT22;5744;59.392;16.748;2024-03-23T13:26:58;12.70;99.90
11379;DHT22;5744;59.392;16.748;2024-03-23T13:29:24;13.00;99.90
11379;DHT22;5744;59.392;16.748;2024-03-23T13:31:50;13.60;99.90
11379;DHT22;5744;59.392;16.748;2024-03-23T13:34:17;13.80;99.90
11379;DHT22;5744;59.392;16.748;2024-03-23T13:36:43;13.90;99.90
11379;DHT22;5744;59.392;16.748;2024-03-23T13:39:09;13.30;99.90
11379;DHT22;5744;59.392;16.748;2024-03-23T13:41:37;13.10;99.90
11379;DHT22;5744;59.392;16.748;2024-03-23T13:44:05;13.10;99.90
11379;DHT22;5744;59.392;16.748;2024-03-23T13:46:31;13.00;99.90
11379;DHT22;5744;59.392;16.748;2024-03-23T13:48:57;13.00;99.90
11379;DHT22;5744;59.392;16.748;2024-03-23T13:51:23;12.90;99.90
11379;DHT22;5744;59.392;16.748;2024-03-23T13:53:50;13.00;99.90
11379;DHT22;5744;59.392;16.748;2024-03-23T13:56:16;13.00;99.90
11379;DHT22;5744;59.392;16.748;2024-03-23T13:58:42;12.90;99.90
11379;DHT22;5744;59.392;16.748;2024-03-23T14:01:11;13.00;99.90
11379;DHT22;5744;59.392;16.748;2024-03-23T14:03:37;13.00;99.90
11379;DHT22;5744;59.392;16.748;2024-03-23T14:06:03;13.00;99.90
11379;DHT22;5744;59.392;16.748;2024-03-23T14:08:29;12.80;99.90
11379;DHT22;5744;59.392;16.748;2024-03-23T14:10:55;12.40;99.90
11379;DHT22;5744;59.392;16.748;2024-03-23T14:13:21;12.40;99.90
11379;DHT22;5744;59.392;16.748;2024-03-23T14:15:46;12.40;99.90
11379;DHT22;5744;59.392;16.748;2024-03-23T14:18:20;12.30;99.90
11379;DHT22;5744;59.392;16.748;2024-03-23T14:20:47;11.60;99.90
11379;DHT22;5744;59.392;16.748;2024-03-23T14:23:13;11.20;99.90
11379;DHT22;5744;59.392;16.748;2024-03-23T14:25:39;11.10;99.90
11379;DHT22;5744;59.392;16.748;2024-03-23T14:28:05;10.90;99.90
11379;DHT22;5744;59.392;16.748;2024-03-23T14:30:31;10.70;99.90
11379;DHT22;5744;59.392;16.748;2024-03-23T14:32:57;10.90;99.90
11379;DHT22;5744;59.392;16.748;2024-03-23T14:35:25;10.90;99.90
11379;DHT22;5744;59.392;16.748;2024-03-23T14:37:51;10.80;99.90
11379;DHT22;5744;59.392;16.748;2024-03-23T14:40:17;10.70;99.90
11379;DHT22;5744;59.392;16.748;2024-03-23T14:42:43;10.20;99.90
11379;DHT22;5744;59.392;16.748;2024-03-23T14:45:08;10.20;99.90
11379;DHT22;5744;59.392;16.748;2024-03-23T14:47:34;9.90;99.90
11379;DHT22;5744;59.392;16.748;2024-03-23T14:50:00;10.00;99.90
11379;DHT22;5744;59.392;16.748;2024-03-23T14:52:29;10.20;99.90
11379;DHT22;5744;59.392;16.748;2024-03-23T14:54:54;10.20;99.90
11379;DHT22;5744;59.392;16.748;2024-03-23T14:57:21;10.40;99.90
11379;DHT22;5744;59.392;16.748;2024-03-23T14:59:47;10.50;99.90
11379;DHT22;5744;59.392;16.748;2024-03-23T15:02:13;10.30;99.90
11379;DHT22;5744;59.392;16.748;2024-03-23T15:04:39;10.20;99.90
11379;DHT22;5744;59.392;16.748;2024-03-23T15:07:05;10.20;99.90
11379;DHT22;5744;59.392;16.748;2024-03-23T15:09:34;9.90;99.90
11379;DHT22;5744;59.392;16.748;2024-03-23T15:11:59;9.80;99.90
11379;DHT22;5744;59.392;16.748;2024-03-23T15:14:25;9.70;99.90
11379;DHT22;5744;59.392;16.748;2024-03-23T15:16:51;9.60;99.90
11379;DHT22;5744;59.392;16.748;2024-03-23T15:19:17;9.50;99.90
11379;DHT22;5744;59.392;16.748;2024-03-23T15:21:43;9.60;99.90
11379;DHT22;5744;59.392;16.748;2024-03-23T15:24:09;9.60;99.90
11379;DHT22;5744;59.392;16.748;2024-03-23T15:26:39;9.60;99.90
11379;DHT22;5744;59.392;16.748;2024-03-23T15:29:06;9.70;99.90
11379;DHT22;5744;59.392;16.748;2024-03-23T15:31:35;9.60;99.90
11379;DHT22;5744;59.392;16.748;2024-03-23T15:34:02;9.60;99.90
11379;DHT22;5744;59.392;16.748;2024-03-23T15:36:27;9.60;99.90
11379;DHT22;5744;59.392;16.748;2024-03-23T15:38:53;9.40;99.90
11379;DHT22;5744;59.392;16.748;2024-03-23T15:41:19;9.30;99.90
11379;DHT22;5744;59.392;16.748;2024-03-23T15:43:48;9.20;99.90
11379;DHT22;5744;59.392;16.748;2024-03-23T15:46:14;9.20;99.90
11379;DHT22;5744;59.392;16.748;2024-03-23T15:48:39;9.30;99.90
11379;DHT22;5744;59.392;16.748;2024-03-23T15:51:05;9.30;99.90
11379;DHT22;5744;59.392;16.748;2024-03-23T15:53:31;9.30;99.90
11379;DHT22;5744;59.392;16.748;2024-03-23T15:55:57;9.20;99.90
11379;DHT22;5744;59.392;16.748;2024-03-23T15:58:23;9.00;99.90
11379;DHT22;5744;59.392;16.748;2024-03-23T16:00:56;8.90;99.90
11379;DHT22;5744;59.392;16.748;2024-03-23T16:03:23;8.90;99.90
11379;DHT22;5744;59.392;16.748;2024-03-23T16:05:52;9.00;99.90
11379;DHT22;5744;59.392;16.748;2024-03-23T16:08:17;8.90;99.90
11379;DHT22;5744;59.392;16.748;2024-03-23T16:10:43;9.00;99.90
11379;DHT22;5744;59.392;16.748;2024-03-23T16:13:09;8.90;99.90
11379;DHT22;5744;59.392;16.748;2024-03-23T16:15:35;8.80;99.90
11379;DHT22;5744;59.392;16.748;2024-03-23T16:18:04;8.70;99.90
11379;DHT22;5744;59.392;16.748;2024-03-23T16:20:29;8.60;99.90
11379;DHT22;5744;59.392;16.748;2024-03-23T16:22:55;8.40;99.90
11379;DHT22;5744;59.392;16.748;2024-03-23T16:25:21;8.20;99.90
11379;DHT22;5744;59.392;16.748;2024-03-23T16:27:47;8.00;99.90
11379;DHT22;5744;59.392;16.748;2024-03-23T16:30:13;7.80;99.90
11379;DHT22;5744;59.392;16.748;2024-03-23T16:32:39;7.60;99.90
11379;DHT22;5744;59.392;16.748;2024-03-23T16:35:08;7.40;99.90
11379;DHT22;5744;59.392;16.748;2024-03-23T16:37:34;7.30;99.90
11379;DHT22;5744;59.392;16.748;2024-03-23T16:40:00;7.20;99.90
11379;DHT22;5744;59.392;16.748;2024-03-23T16:42:26;7.10;99.90
11379;DHT22;5744;59.392;16.748;2024-03-23T16:44:52;7.00;99.90
11379;DHT22;5744;59.392;16.748;2024-03-23T16:47:18;6.90;99.90
11379;DHT22;5744;59.392;16.748;2024-03-23T16:49:43;6.80;99.90
11379;DHT22;5744;59.392;16.748;2024-03-23T16:52:12;6.80;99.90
11379;DHT22;5744;59.392;16.748;2024-03-23T16:54:38;6.70;99.90
11379;DHT22;5744;59.392;16.748;2024-03-23T16:57:04;6.70;99.90
11379;DHT22;5744;59.392;16.748;2024-03-23T16:59:30;6.60;99.90
11379;DHT22;5744;59.392;16.748;2024-03-23T17:01:56;6.50;99.90
11379;DHT22;5744;59.392;16.748;2024-03-23T17:04:22;6.60;99.90
11379;DHT22;5744;59.392;16.748;2024-03-23T17:06:48;6.40;99.90
11379;DHT22;5744;59.392;16.748;2024-03-23T17:09:16;6.40;99.90
11379;DHT22;5744;59.392;16.748;2024-03-23T17:11:42;6.30;99.90
11379;DHT22;5744;59.392;16.748;2024-03-23T17:14:08;6.20;99.90
11379;DHT22;5744;59.392;16.748;2024-03-23T17:16:34;6.20;99.90
11379;DHT22;5744;59.392;16.748;2024-03-23T17:19:00;6.10;99.90
11379;DHT22;5744;59.392;16.748;2024-03-23T17:21:26;6.10;99.90
11379;DHT22;5744;59.392;16.748;2024-03-23T17:23:52;6.00;99.90
11379;DHT22;5744;59.392;16.748;2024-03-23T17:26:21;5.90;99.90
11379;DHT22;5744;59.392;16.748;2024-03-23T17:28:47;5.90;99.90
11379;DHT22;5744;59.392;16.748;2024-03-23T17:31:16;5.80;99.90
11379;DHT22;5744;59.392;16.748;2024-03-23T17:33:42;5.70;99.90
11379;DHT22;5744;59.392;16.748;2024-03-23T17:36:08;5.70;99.90
11379;DHT22;5744;59.392;16.748;2024-03-23T17:38:34;5.70;99.90
11379;DHT22;5744;59.392;16.748;2024-03-23T17:41:00;5.60;99.90
11379;DHT22;5744;59.392;16.748;2024-03-23T17:43:28;5.60;99.90
11379;DHT22;5744;59.392;16.748;2024-03-23T17:45:54;5.50;99.90
11379;DHT22;5744;59.392;16.748;2024-03-23T17:48:20;5.50;99.90
11379;DHT22;5744;59.392;16.748;2024-03-23T17:50:46;5.40;99.90
11379;DHT22;5744;59.392;16.748;2024-03-23T17:53:12;5.40;99.90
11379;DHT22;5744;59.392;16.748;2024-03-23T17:55:38;5.40;99.90
11379;DHT22;5744;59.392;16.748;2024-03-23T17:58:04;5.30;99.90
11379;DHT22;5744;59.392;16.748;2024-03-23T18:00:32;5.30;99.90